createdAt,value
2023-04-28T00:01:08.095Z,75.81
2023-04-28T00:06:11.541Z,75.90
2023-04-28T00:11:14.310Z,76.12
2023-04-28T00:16:17.175Z,76.54
2023-04-28T00:21:20.020Z,76.63
2023-04-28T00:26:22.954Z,76.69
2023-04-28T00:31:25.888Z,76.99
2023-04-28T00:36:32.383Z,77.40
2023-04-28T00:41:35.356Z,77.40
2023-04-28T00:46:38.210Z,77.24
2023-04-28T00:51:41.050Z,77.22
2023-04-28T00:56:44.830Z,77.05
2023-04-28T01:01:47.628Z,77.29
2023-04-28T01:06:52.708Z,77.08
2023-04-28T01:11:55.926Z,77.12
2023-04-28T01:16:59.143Z,77.47
2023-04-28T01:22:02.210Z,77.65
2023-04-28T01:27:05.124Z,77.89
2023-04-28T01:32:10.299Z,77.89
2023-04-28T01:37:13.244Z,77.72
2023-04-28T01:42:16.003Z,77.90
2023-04-28T01:47:18.772Z,77.99
2023-04-28T01:52:23.206Z,77.97
2023-04-28T01:57:26.530Z,77.98
2023-04-28T02:02:29.643Z,77.97
2023-04-28T02:07:32.681Z,78.15
2023-04-28T02:12:35.449Z,78.34
2023-04-28T02:17:38.295Z,78.44
2023-04-28T02:22:41.582Z,78.15
2023-04-28T02:27:45.265Z,78.13
2023-04-28T02:32:48.601Z,78.25
2023-04-28T02:37:52.524Z,78.26
2023-04-28T02:42:55.305Z,78.30
2023-04-28T02:47:58.602Z,78.29
2023-04-28T02:53:01.437Z,78.14
2023-04-28T02:58:04.532Z,78.33
2023-04-28T03:03:07.744Z,78.26
2023-04-28T03:08:11.017Z,78.30
2023-04-28T03:13:14.141Z,78.11
2023-04-28T03:18:18.028Z,78.03
2023-04-28T03:23:20.782Z,78.41
2023-04-28T03:28:23.548Z,78.49
2023-04-28T03:33:26.340Z,78.09
2023-04-28T03:38:29.196Z,78.16
2023-04-28T03:43:34.131Z,78.04
2023-04-28T03:48:36.959Z,78.18
2023-04-28T03:53:39.733Z,78.25
2023-04-28T03:58:44.877Z,78.37
2023-04-28T04:03:47.981Z,78.18
2023-04-28T04:08:51.188Z,78.15
2023-04-28T04:13:53.974Z,78.00
2023-04-28T04:19:01.773Z,77.83
2023-04-28T04:24:04.886Z,77.61
2023-04-28T04:29:07.700Z,77.49
2023-04-28T04:34:13.802Z,77.17
2023-04-28T04:39:16.976Z,76.83
2023-04-28T04:44:20.119Z,76.45
2023-04-28T04:49:22.970Z,75.91
2023-04-28T04:54:25.732Z,75.71
2023-04-28T04:59:28.532Z,75.09
2023-04-28T05:04:31.412Z,74.22
2023-04-28T05:09:34.345Z,73.19
2023-04-28T05:14:39.256Z,71.76
2023-04-28T05:19:41.989Z,70.51
2023-04-28T05:24:44.810Z,69.37
2023-04-28T05:29:47.710Z,67.62
2023-04-28T05:34:50.606Z,66.16
2023-04-28T05:39:53.623Z,65.72
2023-04-28T05:44:56.405Z,64.50
2023-04-28T05:50:02.644Z,63.88
2023-04-28T05:55:08.350Z,62.77
2023-04-28T06:00:16.090Z,62.39
2023-04-28T06:05:19.285Z,62.32
2023-04-28T06:10:23.791Z,61.45
2023-04-28T06:15:26.706Z,60.19
2023-04-28T06:20:29.770Z,57.82
2023-04-28T06:25:32.694Z,48.07
2023-04-28T06:30:35.617Z,41.46
2023-04-28T06:35:39.667Z,35.50
2023-04-28T06:40:42.518Z,31.74
2023-04-28T06:45:45.379Z,28.75
2023-04-28T06:50:48.228Z,27.49
2023-04-28T06:55:51.654Z,24.75
2023-04-28T07:00:54.517Z,24.13
2023-04-28T07:05:58.140Z,23.82
2023-04-28T07:11:04.886Z,25.04
2023-04-28T07:16:08.338Z,27.73
2023-04-28T07:21:14.657Z,31.01
2023-04-28T07:26:17.565Z,31.91
2023-04-28T07:31:24.025Z,29.42
2023-04-28T07:36:27.011Z,27.19
2023-04-28T07:41:30.019Z,26.38
2023-04-28T07:46:33.452Z,25.21
2023-04-28T07:51:36.527Z,24.69
2023-04-28T07:56:39.362Z,23.40
2023-04-28T08:01:43.163Z,23.45
2023-04-28T08:06:46.583Z,23.98
2023-04-28T08:11:49.452Z,23.90
2023-04-28T08:16:52.261Z,24.34
2023-04-28T08:21:55.051Z,24.82
2023-04-28T08:26:57.882Z,24.63
2023-04-28T08:32:04.872Z,24.96
2023-04-28T08:37:07.971Z,26.44
2023-04-28T08:42:15.208Z,26.25
2023-04-28T08:47:21.304Z,25.93
2023-04-28T08:52:27.260Z,26.35
2023-04-28T08:57:48.345Z,26.61
2023-04-28T09:02:51.280Z,27.03
2023-04-28T09:07:55.785Z,27.35
2023-04-28T09:12:58.909Z,27.34
2023-04-28T09:18:06.670Z,27.97
2023-04-28T09:23:17.566Z,28.20
2023-04-28T09:28:23.086Z,29.35
2023-04-28T09:33:26.137Z,29.96
2023-04-28T09:38:30.476Z,30.45
2023-04-28T09:43:35.907Z,31.09
2023-04-28T09:48:38.925Z,31.41
2023-04-28T09:53:43.115Z,30.93
2023-04-28T09:58:52.920Z,30.61
2023-04-28T10:03:58.207Z,31.43
2023-04-28T10:09:02.091Z,30.85
2023-04-28T10:14:06.034Z,30.84
2023-04-28T10:19:10.568Z,30.96
2023-04-28T10:24:22.637Z,29.76
2023-04-28T10:29:25.923Z,30.39
2023-04-28T10:34:30.212Z,30.28
2023-04-28T10:39:35.347Z,30.52
2023-04-28T10:44:44.550Z,30.74
2023-04-28T10:49:57.765Z,29.28
2023-04-28T10:55:40.334Z,30.55
2023-04-28T11:00:45.389Z,30.20
2023-04-28T11:06:29.337Z,30.40
2023-04-28T11:11:38.928Z,30.60
2023-04-28T11:16:57.559Z,30.66
2023-04-28T11:22:04.465Z,30.69
2023-04-28T11:27:07.408Z,31.11
2023-04-28T11:32:11.035Z,31.20
2023-04-28T11:37:18.312Z,31.73
2023-04-28T11:42:27.262Z,31.59
2023-04-28T11:47:32.737Z,30.63
2023-04-28T11:52:36.112Z,31.25
2023-04-28T11:57:39.981Z,31.54
2023-04-28T12:02:43.161Z,30.91
2023-04-28T12:07:47.065Z,31.31
2023-04-28T12:12:53.207Z,31.81
2023-04-28T12:17:57.047Z,31.18
2023-04-28T12:23:03.110Z,31.25
2023-04-28T12:28:10.926Z,31.28
2023-04-28T12:33:25.628Z,32.12
2023-04-28T12:38:30.905Z,31.92
2023-04-28T12:43:34.747Z,31.50
2023-04-28T12:48:38.554Z,31.82
2023-04-28T12:53:41.303Z,31.90
2023-04-28T12:58:44.220Z,31.95
2023-04-28T13:03:48.659Z,32.80
2023-04-28T13:08:51.986Z,32.20
2023-04-28T13:13:56.732Z,31.92
2023-04-28T13:19:02.906Z,33.04
2023-04-28T13:24:06.036Z,32.91
2023-04-28T13:29:09.565Z,32.32
2023-04-28T13:34:19.053Z,32.88
2023-04-28T13:39:22.218Z,33.21
2023-04-28T13:44:24.989Z,32.09
2023-04-28T13:49:28.236Z,32.05
2023-04-28T13:54:31.438Z,32.26
2023-04-28T13:59:34.372Z,33.30
2023-04-28T14:04:37.737Z,33.64
2023-04-28T14:09:41.582Z,33.14
2023-04-28T14:14:49.166Z,32.54
2023-04-28T14:19:56.409Z,33.38
2023-04-28T14:24:59.306Z,33.12
2023-04-28T14:30:02.358Z,33.36
2023-04-28T14:35:06.390Z,33.10
2023-04-28T14:40:10.403Z,33.32
2023-04-28T14:45:14.016Z,33.90
2023-04-28T14:50:16.918Z,34.30
2023-04-28T14:55:21.032Z,33.70
2023-04-28T15:00:23.954Z,34.30
2023-04-28T15:05:27.299Z,34.72
2023-04-28T15:10:39.530Z,34.12
2023-04-28T15:15:42.742Z,33.83
2023-04-28T15:20:45.843Z,34.48
2023-04-28T15:25:53.257Z,34.49
2023-04-28T15:30:56.380Z,34.01
2023-04-28T15:35:59.201Z,35.27
2023-04-28T15:41:02.730Z,35.04
2023-04-28T15:46:09.433Z,34.59
2023-04-28T15:51:14.896Z,34.74
2023-04-28T15:56:19.700Z,34.92
2023-04-28T16:01:24.625Z,35.27
2023-04-28T16:06:27.801Z,35.61
2023-04-28T16:11:30.889Z,35.59
2023-04-28T16:16:34.495Z,35.78
2023-04-28T16:21:37.329Z,35.44
2023-04-28T16:26:40.588Z,36.08
2023-04-28T16:31:45.072Z,35.76
2023-04-28T16:36:48.170Z,36.20
2023-04-28T16:41:51.198Z,36.44
2023-04-28T16:46:54.278Z,36.35
2023-04-28T16:52:03.881Z,36.47
2023-04-28T16:57:08.113Z,36.59
2023-04-28T17:02:12.296Z,37.01
2023-04-28T17:07:17.586Z,37.19
2023-04-28T17:12:23.430Z,37.24
2023-04-28T17:17:26.528Z,37.00
2023-04-28T17:22:31.920Z,37.45
2023-04-28T17:27:35.476Z,37.66
2023-04-28T17:32:38.742Z,37.57
2023-04-28T17:37:42.103Z,37.94
2023-04-28T17:42:44.827Z,38.24
2023-04-28T17:47:53.179Z,38.27
2023-04-28T17:52:56.123Z,38.73
2023-04-28T17:58:01.621Z,38.80
2023-04-28T18:03:04.576Z,39.11
2023-04-28T18:08:09.445Z,39.33
2023-04-28T18:13:12.248Z,39.59
2023-04-28T18:18:17.349Z,39.85
2023-04-28T18:23:20.373Z,40.21
2023-04-28T18:28:24.830Z,40.51
2023-04-28T18:33:29.860Z,40.84
2023-04-28T18:38:35.297Z,41.40
2023-04-28T18:43:38.110Z,41.82
2023-04-28T18:48:43.128Z,42.23
2023-04-28T18:53:47.479Z,42.83
2023-04-28T18:58:50.775Z,43.15
2023-04-28T19:03:53.696Z,43.39
2023-04-28T19:08:57.462Z,43.52
2023-04-28T19:14:00.219Z,43.98
2023-04-28T19:19:03.235Z,44.46
2023-04-28T19:24:06.792Z,45.14
2023-04-28T19:29:09.538Z,45.38
2023-04-28T19:34:12.589Z,45.49
2023-04-28T19:39:15.356Z,45.71
2023-04-28T19:44:18.232Z,46.28
2023-04-28T19:49:22.871Z,46.66
2023-04-28T19:54:26.399Z,47.04
2023-04-28T19:59:29.220Z,47.39
2023-04-28T20:04:32.446Z,47.97
2023-04-28T20:09:38.981Z,48.49
2023-04-28T20:14:41.741Z,49.21
2023-04-28T20:19:44.578Z,49.54
2023-04-28T20:24:47.572Z,49.91
2023-04-28T20:29:50.973Z,50.22
2023-04-28T20:34:54.386Z,50.57
2023-04-28T20:39:57.838Z,51.21
2023-04-28T20:45:00.792Z,51.61
2023-04-28T20:50:06.630Z,51.91
2023-04-28T20:55:10.606Z,52.03
2023-04-28T21:00:13.561Z,52.39
2023-04-28T21:05:17.752Z,52.93
2023-04-28T21:10:20.663Z,53.48
2023-04-28T21:15:23.558Z,53.86
2023-04-28T21:20:26.690Z,54.41
2023-04-28T21:25:29.585Z,54.99
2023-04-28T21:30:32.344Z,55.77
2023-04-28T21:35:35.183Z,56.32
2023-04-28T21:40:37.897Z,56.54
2023-04-28T21:45:40.683Z,56.66
2023-04-28T21:50:43.627Z,56.93
2023-04-28T21:55:47.525Z,57.39
2023-04-28T22:00:51.369Z,57.68
2023-04-28T22:05:55.351Z,57.87
2023-04-28T22:10:58.282Z,58.13
2023-04-28T22:16:01.986Z,58.36
2023-04-28T22:21:07.286Z,58.49
2023-04-28T22:26:10.140Z,58.47
2023-04-28T22:31:13.569Z,58.45
2023-04-28T22:36:16.699Z,58.73
2023-04-28T22:41:19.441Z,59.11
2023-04-28T22:46:22.269Z,59.62
2023-04-28T22:51:25.120Z,59.74
2023-04-28T22:56:28.186Z,59.75
2023-04-28T23:01:31.990Z,59.89
2023-04-28T23:06:35.186Z,60.01
2023-04-28T23:11:37.961Z,59.99
2023-04-28T23:16:41.185Z,60.06
2023-04-28T23:21:44.627Z,60.09
2023-04-28T23:26:47.364Z,60.29
2023-04-28T23:31:55.057Z,60.29
2023-04-28T23:36:58.605Z,60.38
2023-04-28T23:42:02.551Z,60.52
2023-04-28T23:47:05.292Z,60.52
2023-04-28T23:52:08.114Z,60.42
2023-04-28T23:57:11.175Z,60.35
